Portada
METAR-TAF:

METAR-TAF

Aeroports :

Wellington, Nova Zelanda

latitud: 41-20S, longitud: 174-48E, altitud: 12 m

Observació

L'informe es va fer fa 24 minuts, a les 05:00 UTC
Vent 16 kt del Nord/Nord-Est
Temperatura 15°C
Humitat 82%
Pressió 1016 hPa
Visibilitat 10 km o més

METAR: NZWN 260500Z AUTO 02016KT 9999 SCT021/// 15/12 Q1016 NOSIG

Hora: 17:24 (05:24 UTC)

Pronòstic

L'informe es va fer fa 6 hores i 18 minuts, a les 23:06 UTC
Pronòstic vàlid del 26 a les 00 UTC al 27 a les 00 UTC
Vent 18 kt del Nord amb ràfegues de 30 kt
Visibilitat 10 km o més
Escasses núvols a una alçada de 2500 ft
Probabilitat 40%
l' 26 a les 12 UTC al 26 a les 18 UTC
Cel ennuvolat a una alçada de 800 ft

TAF: NZWN 252306Z 2600/2700 36018G30KT 9999 FEW025 PROB40 2612/2618 BKN008

Observacions i pronòstics meteorològics de més de 4000 aeroports (METAR i TAF).

Les estacions disponibles són els punts grocs i vermells al mapa.

Posi el ratolí al punt desitjat per veure el nom de l'estació.

Feu clic per veure les observacions i els pronòstics meteorològics.

Per canviar el mapa: feu clic els botons verds amb una creu de color negre per apropar; al botó verd amb un guió per allunyar la imatge; o en les fletxes verdes per a mapes adjacents.


METAR-TAF: